createdAt,value
2023-05-22T00:01:51.848Z,98303.00
2023-05-22T00:04:21.508Z,98300.63
2023-05-22T00:06:49.016Z,98303.47
2023-05-22T00:09:15.846Z,98308.41
2023-05-22T00:11:42.694Z,98309.09
2023-05-22T00:14:09.472Z,98297.47
2023-05-22T00:16:36.516Z,98304.63
2023-05-22T00:19:03.915Z,98303.69
2023-05-22T00:21:34.810Z,98297.81
2023-05-22T00:24:02.411Z,98299.94
2023-05-22T00:26:29.267Z,98304.28
2023-05-22T00:28:56.069Z,98296.41
2023-05-22T00:31:23.726Z,98311.13
2023-05-22T00:33:50.859Z,98325.81
2023-05-22T00:36:18.791Z,98304.84
2023-05-22T00:38:46.375Z,98322.16
2023-05-22T00:41:13.428Z,98310.25
2023-05-22T00:43:40.303Z,98301.44
2023-05-22T00:46:10.042Z,98304.72
2023-05-22T00:48:36.905Z,98308.84
2023-05-22T00:51:04.001Z,98310.50
2023-05-22T00:53:31.444Z,98326.84
2023-05-22T00:55:59.799Z,98325.91
2023-05-22T00:58:27.404Z,98329.53
2023-05-22T01:00:55.505Z,98327.19
2023-05-22T01:03:27.002Z,98324.50
2023-05-22T01:05:54.691Z,98315.44
2023-05-22T01:08:21.631Z,98318.63
2023-05-22T01:10:52.490Z,98334.41
2023-05-22T01:13:26.779Z,98340.03
2023-05-22T01:16:09.955Z,98335.06
2023-05-22T01:19:02.901Z,98331.34
2023-05-22T01:21:34.132Z,98325.91
2023-05-22T01:24:12.303Z,98320.75
2023-05-22T01:26:54.208Z,98323.31
2023-05-22T01:29:31.057Z,98318.63
2023-05-22T01:32:00.550Z,98316.50
2023-05-22T01:34:30.659Z,98324.97
2023-05-22T01:36:58.939Z,98321.47
2023-05-22T01:39:27.844Z,98321.78
2023-05-22T01:41:55.329Z,98295.34
2023-05-22T01:44:22.094Z,98307.81
2023-05-22T01:46:48.896Z,98307.09
2023-05-22T01:49:16.383Z,98305.47
2023-05-22T01:51:57.571Z,98311.81
2023-05-22T01:54:28.127Z,98300.97
2023-05-22T01:57:25.029Z,98301.47
2023-05-22T02:00:09.781Z,98288.28
2023-05-22T02:02:49.905Z,98288.78
2023-05-22T02:05:20.848Z,98282.66
2023-05-22T02:07:48.306Z,98303.22
2023-05-22T02:10:17.551Z,98303.91
2023-05-22T02:12:44.954Z,98287.59
2023-05-22T02:15:11.996Z,98295.13
2023-05-22T02:17:42.635Z,98296.53
2023-05-22T02:20:15.698Z,98286.88
2023-05-22T02:22:47.140Z,98290.88
2023-05-22T02:25:17.211Z,98283.34
2023-05-22T02:27:47.541Z,98282.06
2023-05-22T02:30:15.210Z,98288.88
2023-05-22T02:32:43.678Z,98291.47
2023-05-22T02:35:10.955Z,98293.13
2023-05-22T02:37:38.101Z,98293.69
2023-05-22T02:40:09.956Z,98296.53
2023-05-22T02:42:36.744Z,98284.66
2023-05-22T02:45:03.756Z,98288.53
2023-05-22T02:47:30.719Z,98277.50
2023-05-22T02:50:00.413Z,98294.06
2023-05-22T02:52:28.378Z,98281.13
2023-05-22T02:54:55.121Z,98261.63
2023-05-22T02:57:22.700Z,98286.88
2023-05-22T02:59:49.445Z,98271.97
2023-05-22T03:02:17.606Z,98270.44
2023-05-22T03:04:44.357Z,98283.97
2023-05-22T03:07:12.318Z,98283.97
2023-05-22T03:09:39.246Z,98283.13
2023-05-22T03:12:06.503Z,98297.00
2023-05-22T03:14:33.279Z,98296.88
2023-05-22T03:17:00.222Z,98299.34
2023-05-22T03:19:27.237Z,98299.13
2023-05-22T03:21:54.311Z,98300.66
2023-05-22T03:24:22.095Z,98319.31
2023-05-22T03:26:48.933Z,98329.78
2023-05-22T03:29:21.725Z,98318.50
2023-05-22T03:31:48.698Z,98329.78
2023-05-22T03:34:16.751Z,98341.78
2023-05-22T03:36:46.166Z,98336.50
2023-05-22T03:39:15.368Z,98331.31
2023-05-22T03:41:50.606Z,98333.78
2023-05-22T03:44:17.562Z,98348.94
2023-05-22T03:46:44.865Z,98344.25
2023-05-22T03:49:11.770Z,98347.31
2023-05-22T03:51:38.441Z,98350.34
2023-05-22T03:54:05.318Z,98346.47
2023-05-22T03:56:32.004Z,98345.19
2023-05-22T03:58:58.774Z,98353.06
2023-05-22T04:01:25.414Z,98348.00
2023-05-22T04:03:52.251Z,98352.50
2023-05-22T04:06:21.781Z,98341.41
2023-05-22T04:08:49.393Z,98353.19
2023-05-22T04:11:16.282Z,98356.50
2023-05-22T04:13:43.053Z,98361.31
2023-05-22T04:16:10.410Z,98375.16
2023-05-22T04:18:37.716Z,98379.84
2023-05-22T04:21:08.004Z,98390.31
2023-05-22T04:23:34.790Z,98392.09
2023-05-22T04:26:04.350Z,98395.84
2023-05-22T04:28:31.216Z,98385.59
2023-05-22T04:30:58.043Z,98392.31
2023-05-22T04:33:24.890Z,98392.56
2023-05-22T04:35:52.049Z,98399.84
2023-05-22T04:38:18.885Z,98405.38
2023-05-22T04:40:45.791Z,98413.97
2023-05-22T04:43:12.701Z,98406.06
2023-05-22T04:45:39.386Z,98408.66
2023-05-22T04:48:06.520Z,98410.56
2023-05-22T04:50:36.044Z,98404.78
2023-05-22T04:53:06.250Z,98408.44
2023-05-22T04:55:34.053Z,98400.66
2023-05-22T04:58:00.869Z,98410.44
2023-05-22T05:00:28.979Z,98408.78
2023-05-22T05:02:57.512Z,98405.38
2023-05-22T05:05:25.104Z,98405.81
2023-05-22T05:07:53.412Z,98406.66
2023-05-22T05:10:20.570Z,98412.41
2023-05-22T05:12:47.249Z,98405.97
2023-05-22T05:15:14.149Z,98393.16
2023-05-22T05:17:41.205Z,98402.31
2023-05-22T05:20:08.878Z,98378.00
2023-05-22T05:22:36.039Z,98386.94
2023-05-22T05:25:05.537Z,98388.47
2023-05-22T05:27:32.957Z,98377.50
2023-05-22T05:30:00.292Z,98382.44
2023-05-22T05:32:39.088Z,98382.56
2023-05-22T05:35:24.970Z,98375.97
2023-05-22T05:38:02.753Z,98376.22
2023-05-22T05:40:30.747Z,98378.47
2023-05-22T05:42:58.285Z,98377.41
2023-05-22T05:45:26.378Z,98375.78
2023-05-22T05:47:53.375Z,98367.53
2023-05-22T05:50:20.332Z,98370.00
2023-05-22T05:52:47.711Z,98369.63
2023-05-22T05:55:17.387Z,98374.47
2023-05-22T05:57:44.085Z,98371.16
2023-05-22T06:00:16.092Z,98369.75
2023-05-22T06:02:43.769Z,98365.63
2023-05-22T06:05:24.023Z,98362.00
2023-05-22T06:07:58.879Z,98369.63
2023-05-22T06:10:25.702Z,98364.34
2023-05-22T06:13:09.994Z,98358.59
2023-05-22T06:15:36.774Z,98371.19
2023-05-22T06:18:03.694Z,98367.91
2023-05-22T06:20:30.828Z,98369.06
2023-05-22T06:22:57.701Z,98358.13
2023-05-22T06:25:26.088Z,98368.84
2023-05-22T06:27:53.236Z,98369.63
2023-05-22T06:30:43.719Z,98364.94
2023-05-22T06:33:12.337Z,98366.00
2023-05-22T06:35:41.929Z,98366.00
2023-05-22T06:38:09.105Z,98360.47
2023-05-22T06:40:37.208Z,98356.94
2023-05-22T06:43:12.329Z,98355.56
2023-05-22T06:45:55.348Z,98354.63
2023-05-22T06:48:40.794Z,98358.34
2023-05-22T06:51:21.688Z,98347.19
2023-05-22T06:53:51.922Z,98348.81
2023-05-22T06:56:24.866Z,98344.84
2023-05-22T06:59:02.594Z,98349.69
2023-05-22T07:01:47.955Z,98344.16
2023-05-22T07:04:19.556Z,98340.25
2023-05-22T07:06:57.913Z,98336.84
2023-05-22T07:09:25.021Z,98337.78
2023-05-22T07:11:53.017Z,98340.38
2023-05-22T07:14:21.234Z,98329.44
2023-05-22T07:16:47.943Z,98337.44
2023-05-22T07:19:20.283Z,98341.94
2023-05-22T07:21:47.428Z,98342.84
2023-05-22T07:24:17.692Z,98348.50
2023-05-22T07:26:47.530Z,98346.25
2023-05-22T07:29:15.934Z,98340.84
2023-05-22T07:31:45.620Z,98336.25
2023-05-22T07:34:12.554Z,98326.91
2023-05-22T07:36:39.360Z,98328.19
2023-05-22T07:39:09.463Z,98327.50
2023-05-22T07:41:39.382Z,98325.63
2023-05-22T07:44:08.149Z,98323.00
2023-05-22T07:46:38.262Z,98327.69
2023-05-22T07:49:19.566Z,98315.44
2023-05-22T07:51:47.270Z,98319.28
2023-05-22T07:54:15.914Z,98316.31
2023-05-22T07:56:45.955Z,98314.59
2023-05-22T07:59:14.764Z,98308.44
2023-05-22T08:01:44.469Z,98310.34
2023-05-22T08:04:11.588Z,98316.66
2023-05-22T08:06:39.541Z,98308.56
2023-05-22T08:09:06.359Z,98306.44
2023-05-22T08:11:34.218Z,98304.47
2023-05-22T08:14:00.999Z,98297.34
2023-05-22T08:16:27.897Z,98294.81
2023-05-22T08:18:54.641Z,98293.72
2023-05-22T08:21:21.361Z,98295.78
2023-05-22T08:23:48.145Z,98289.66
2023-05-22T08:26:15.239Z,98289.19
2023-05-22T08:28:44.685Z,98280.59
2023-05-22T08:31:11.951Z,98282.38
2023-05-22T08:33:39.881Z,98279.41
2023-05-22T08:36:06.852Z,98269.84
2023-05-22T08:38:33.864Z,98274.09
2023-05-22T08:41:00.863Z,98270.25
2023-05-22T08:43:28.680Z,98271.53
2023-05-22T08:46:05.023Z,98272.03
2023-05-22T08:48:33.144Z,98269.84
2023-05-22T08:51:04.785Z,98264.56
2023-05-22T08:53:35.645Z,98264.75
2023-05-22T08:56:05.096Z,98262.28
2023-05-22T08:58:35.076Z,98251.59
2023-05-22T09:01:02.937Z,98262.84
2023-05-22T09:03:33.232Z,98265.44
2023-05-22T09:06:01.308Z,98261.63
2023-05-22T09:08:28.976Z,98261.94
2023-05-22T09:10:56.512Z,98259.59
2023-05-22T09:13:31.269Z,98251.41
2023-05-22T09:16:08.528Z,98251.00
2023-05-22T09:18:37.350Z,98240.09
2023-05-22T09:21:11.525Z,98246.97
2023-05-22T09:23:50.346Z,98243.03
2023-05-22T09:26:17.514Z,98241.56
2023-05-22T09:28:44.689Z,98227.75
2023-05-22T09:31:11.693Z,98245.16
2023-05-22T09:33:38.602Z,98230.50
2023-05-22T09:36:09.521Z,98230.22
2023-05-22T09:38:36.765Z,98236.25
2023-05-22T09:41:03.525Z,98226.94
2023-05-22T09:43:30.362Z,98233.19
2023-05-22T09:46:00.535Z,98231.66
2023-05-22T09:48:27.686Z,98226.59
2023-05-22T09:50:55.948Z,98227.53
2023-05-22T09:53:28.396Z,98225.47
2023-05-22T09:55:58.125Z,98221.72
2023-05-22T09:58:27.591Z,98221.09
2023-05-22T10:00:56.218Z,98222.31
2023-05-22T10:03:25.013Z,98218.44
2023-05-22T10:05:54.607Z,98211.19
2023-05-22T10:08:26.425Z,98216.50
2023-05-22T10:10:53.735Z,98209.88
2023-05-22T10:13:21.655Z,98199.22
2023-05-22T10:15:49.782Z,98197.81
2023-05-22T10:18:17.580Z,98206.69
2023-05-22T10:20:47.065Z,98194.63
2023-05-22T10:23:16.654Z,98209.59
2023-05-22T10:25:44.606Z,98199.63
2023-05-22T10:28:17.719Z,98202.44
2023-05-22T10:30:54.380Z,98207.78
2023-05-22T10:34:02.566Z,98205.19
2023-05-22T10:36:46.581Z,98204.69
2023-05-22T10:39:30.555Z,98208.22
2023-05-22T10:41:57.411Z,98211.44
2023-05-22T10:44:24.240Z,98201.44
2023-05-22T10:46:51.376Z,98192.91
2023-05-22T10:49:26.075Z,98189.47
2023-05-22T10:51:57.214Z,98197.63
2023-05-22T10:54:43.565Z,98193.19
2023-05-22T10:57:16.258Z,98191.81
2023-05-22T10:59:44.182Z,98198.34
2023-05-22T11:02:31.421Z,98191.38
2023-05-22T11:05:25.854Z,98187.06
2023-05-22T11:07:52.863Z,98180.81
2023-05-22T11:10:59.370Z,98177.03
2023-05-22T11:13:29.623Z,98181.06
2023-05-22T11:15:57.713Z,98175.91
2023-05-22T11:18:28.606Z,98168.50
2023-05-22T11:20:55.879Z,98168.72
2023-05-22T11:23:25.732Z,98163.09
2023-05-22T11:25:52.833Z,98153.84
2023-05-22T11:28:19.661Z,98159.19
2023-05-22T11:30:47.381Z,98162.47
2023-05-22T11:33:14.970Z,98156.94
2023-05-22T11:35:44.909Z,98153.31
2023-05-22T11:38:12.582Z,98160.84
2023-05-22T11:40:40.100Z,98157.06
2023-05-22T11:43:07.330Z,98156.72
2023-05-22T11:45:37.798Z,98160.66
2023-05-22T11:48:04.977Z,98145.00
2023-05-22T11:50:41.576Z,98150.03
2023-05-22T11:53:09.039Z,98146.97
2023-05-22T11:55:35.822Z,98150.94
2023-05-22T11:58:02.995Z,98139.16
2023-05-22T12:00:32.044Z,98141.44
2023-05-22T12:02:59.114Z,98137.16
2023-05-22T12:05:26.180Z,98135.34
2023-05-22T12:07:53.813Z,98132.88
2023-05-22T12:10:20.738Z,98129.75
2023-05-22T12:12:48.170Z,98131.16
2023-05-22T12:15:21.027Z,98117.78
2023-05-22T12:17:48.076Z,98129.19
2023-05-22T12:20:15.253Z,98129.47
2023-05-22T12:22:43.935Z,98125.06
2023-05-22T12:25:20.321Z,98130.94
2023-05-22T12:27:47.577Z,98125.34
2023-05-22T12:30:15.211Z,98125.47
2023-05-22T12:32:48.479Z,98123.47
2023-05-22T12:35:17.155Z,98118.66
2023-05-22T12:37:51.782Z,98114.97
2023-05-22T12:40:19.277Z,98122.28
2023-05-22T12:42:46.222Z,98115.78
2023-05-22T12:45:14.687Z,98110.22
2023-05-22T12:47:41.707Z,98114.19
2023-05-22T12:50:09.047Z,98111.88
2023-05-22T12:52:36.382Z,98107.09
2023-05-22T12:55:03.247Z,98109.75
2023-05-22T12:57:30.061Z,98106.41
2023-05-22T12:59:56.963Z,98107.09
2023-05-22T13:02:23.968Z,98108.53
2023-05-22T13:04:50.897Z,98107.22
2023-05-22T13:07:17.790Z,98107.47
2023-05-22T13:09:44.621Z,98106.94
2023-05-22T13:12:11.629Z,98097.78
2023-05-22T13:14:40.326Z,98106.75
2023-05-22T13:17:07.367Z,98099.56
2023-05-22T13:19:34.625Z,98101.47
2023-05-22T13:22:01.619Z,98094.03
2023-05-22T13:24:28.438Z,98091.31
2023-05-22T13:26:55.223Z,98084.72
2023-05-22T13:29:22.132Z,98083.47
2023-05-22T13:31:48.849Z,98089.91
2023-05-22T13:34:15.940Z,98077.34
2023-05-22T13:36:42.904Z,98091.16
2023-05-22T13:39:10.003Z,98087.97
2023-05-22T13:41:37.041Z,98080.09
2023-05-22T13:44:03.933Z,98069.53
2023-05-22T13:46:30.695Z,98078.09
2023-05-22T13:48:57.461Z,98080.56
2023-05-22T13:51:24.333Z,98072.59
2023-05-22T13:53:51.076Z,98076.50
2023-05-22T13:56:17.799Z,98072.78
2023-05-22T13:58:44.650Z,98064.72
2023-05-22T14:01:11.379Z,98068.88
2023-05-22T14:03:38.484Z,98065.97
2023-05-22T14:06:07.011Z,98060.06
2023-05-22T14:08:33.880Z,98055.00
2023-05-22T14:11:01.253Z,98061.44
2023-05-22T14:13:28.219Z,98053.09
2023-05-22T14:15:55.092Z,98058.38
2023-05-22T14:18:21.969Z,98051.59
2023-05-22T14:20:48.980Z,98051.31
2023-05-22T14:23:15.882Z,98041.97
2023-05-22T14:25:43.253Z,98044.75
2023-05-22T14:28:14.018Z,98045.00
2023-05-22T14:30:41.116Z,98040.75
2023-05-22T14:33:07.952Z,98023.28
2023-05-22T14:35:34.815Z,98037.41
2023-05-22T14:38:01.981Z,98046.66
2023-05-22T14:40:28.988Z,98039.50
2023-05-22T14:42:56.106Z,98048.50
2023-05-22T14:45:23.136Z,98046.97
2023-05-22T14:47:50.262Z,98038.66
2023-05-22T14:50:20.337Z,98038.38
2023-05-22T14:52:48.705Z,98037.09
2023-05-22T14:55:16.590Z,98020.00
2023-05-22T14:57:44.628Z,98029.38
2023-05-22T15:00:12.759Z,98020.91
2023-05-22T15:02:40.575Z,98029.47
2023-05-22T15:05:08.340Z,98022.38
2023-05-22T15:10:06.622Z,98016.94
2023-05-22T15:12:33.643Z,98008.56
2023-05-22T15:15:01.677Z,98017.91
2023-05-22T15:17:28.469Z,98006.47
2023-05-22T15:19:55.644Z,98009.63
2023-05-22T15:22:22.467Z,98015.50
2023-05-22T15:25:04.563Z,98014.97
2023-05-22T15:27:31.993Z,98001.59
2023-05-22T15:29:58.816Z,97993.56
2023-05-22T15:32:25.926Z,98006.47
2023-05-22T15:34:52.760Z,98008.81
2023-05-22T15:37:20.033Z,98004.38
2023-05-22T15:39:47.028Z,97996.22
2023-05-22T15:42:14.196Z,98006.13
2023-05-22T15:44:41.807Z,97997.06
2023-05-22T15:47:08.659Z,97995.91
2023-05-22T15:49:35.629Z,97999.41
2023-05-22T15:52:02.704Z,97994.25
2023-05-22T15:54:29.613Z,97990.53
2023-05-22T15:56:56.522Z,97986.41
2023-05-22T15:59:23.133Z,97984.38
2023-05-22T16:01:49.888Z,97982.28
2023-05-22T16:04:16.755Z,97985.59
2023-05-22T16:06:43.570Z,97986.47
2023-05-22T16:09:11.020Z,97981.91
2023-05-22T16:11:37.916Z,97973.56
2023-05-22T16:14:05.022Z,97980.28
2023-05-22T16:16:31.981Z,97974.22
2023-05-22T16:18:58.766Z,97980.06
2023-05-22T16:21:25.446Z,97974.41
2023-05-22T16:23:52.345Z,97979.09
2023-05-22T16:26:19.354Z,97984.66
2023-05-22T16:28:46.102Z,97976.78
2023-05-22T16:31:13.990Z,97989.72
2023-05-22T16:33:40.739Z,97997.78
2023-05-22T16:36:07.706Z,97991.47
2023-05-22T16:38:34.516Z,97988.22
2023-05-22T16:41:01.391Z,97983.59
2023-05-22T16:43:28.093Z,97990.22
2023-05-22T16:45:55.369Z,97984.53
2023-05-22T16:48:22.088Z,97984.06
2023-05-22T16:50:48.888Z,97986.06
2023-05-22T16:53:17.372Z,97977.00
2023-05-22T16:55:44.515Z,97980.00
2023-05-22T16:58:12.701Z,97984.50
2023-05-22T17:00:40.528Z,97988.03
2023-05-22T17:03:08.233Z,97963.91
2023-05-22T17:05:36.198Z,97965.91
2023-05-22T17:08:03.358Z,97981.47
2023-05-22T17:10:30.275Z,97993.03
2023-05-22T17:12:56.986Z,97995.13
2023-05-22T17:15:23.829Z,97986.56
2023-05-22T17:17:50.849Z,97997.34
2023-05-22T17:20:18.044Z,98008.81
2023-05-22T17:22:44.722Z,98008.13
2023-05-22T17:25:11.437Z,97997.69
2023-05-22T17:27:38.182Z,98014.97
2023-05-22T17:30:07.516Z,98022.81
2023-05-22T17:32:34.978Z,98023.06
2023-05-22T17:35:02.333Z,98024.69
2023-05-22T17:37:29.383Z,98019.69
2023-05-22T17:39:56.062Z,98024.16
2023-05-22T17:42:22.972Z,98021.28
2023-05-22T17:44:49.799Z,98023.16
2023-05-22T17:47:16.594Z,98029.22
2023-05-22T17:49:43.326Z,98039.09
2023-05-22T17:52:11.107Z,98030.00
2023-05-22T17:54:37.910Z,98033.50
2023-05-22T17:57:04.717Z,98024.38
2023-05-22T17:59:32.744Z,98035.97
2023-05-22T18:01:59.624Z,98032.28
2023-05-22T18:04:26.625Z,98033.97
2023-05-22T18:06:53.313Z,98030.22
2023-05-22T18:09:20.341Z,98022.63
2023-05-22T18:11:46.972Z,98030.13
2023-05-22T18:14:13.822Z,98034.94
2023-05-22T18:16:40.548Z,98036.88
2023-05-22T18:19:07.389Z,98035.28
2023-05-22T18:21:34.229Z,98039.22
2023-05-22T18:24:01.028Z,98054.28
2023-05-22T18:26:27.766Z,98048.34
2023-05-22T18:28:54.682Z,98046.75
2023-05-22T18:31:22.203Z,98054.56
2023-05-22T18:33:49.011Z,98059.13
2023-05-22T18:36:16.215Z,98063.53
2023-05-22T18:38:43.131Z,98057.53
2023-05-22T18:41:09.900Z,98055.88
2023-05-22T18:43:36.824Z,98061.44
2023-05-22T18:46:03.495Z,98070.25
2023-05-22T18:48:31.074Z,98074.16
2023-05-22T18:50:58.014Z,98072.34
2023-05-22T18:53:25.520Z,98082.78
2023-05-22T18:55:53.728Z,98087.34
2023-05-22T18:58:20.652Z,98085.56
2023-05-22T19:00:47.657Z,98098.94
2023-05-22T19:03:14.525Z,98096.81
2023-05-22T19:05:41.648Z,98100.91
2023-05-22T19:08:08.784Z,98108.75
2023-05-22T19:10:35.849Z,98107.09
2023-05-22T19:13:02.713Z,98123.59
2023-05-22T19:15:29.344Z,98122.44
2023-05-22T19:17:56.116Z,98129.13
2023-05-22T19:20:23.812Z,98132.56
2023-05-22T19:22:51.360Z,98135.19
2023-05-22T19:25:18.516Z,98133.03
2023-05-22T19:27:45.901Z,98137.59
2023-05-22T19:30:15.308Z,98142.47
2023-05-22T19:32:45.208Z,98145.75
2023-05-22T19:35:12.076Z,98150.78
2023-05-22T19:37:38.773Z,98158.25
2023-05-22T19:40:07.056Z,98161.19
2023-05-22T19:42:34.376Z,98167.25
2023-05-22T19:45:02.645Z,98163.31
2023-05-22T19:47:29.460Z,98171.44
2023-05-22T19:49:56.515Z,98178.94
2023-05-22T19:52:23.359Z,98186.94
2023-05-22T19:54:50.187Z,98196.34
2023-05-22T19:57:16.914Z,98195.63
2023-05-22T19:59:43.630Z,98188.13
2023-05-22T20:02:10.927Z,98201.00
2023-05-22T20:04:43.109Z,98205.13
2023-05-22T20:07:10.499Z,98203.63
2023-05-22T20:09:37.463Z,98203.09
2023-05-22T20:12:04.548Z,98203.56
2023-05-22T20:14:31.200Z,98214.63
2023-05-22T20:16:59.348Z,98214.78
2023-05-22T20:19:27.512Z,98210.31
2023-05-22T20:21:54.465Z,98222.41
2023-05-22T20:24:21.160Z,98217.03
2023-05-22T20:26:48.238Z,98220.91
2023-05-22T20:29:14.925Z,98217.66
2023-05-22T20:31:42.031Z,98218.78
2023-05-22T20:34:09.632Z,98221.84
2023-05-22T20:36:36.582Z,98222.91
2023-05-22T20:39:03.632Z,98220.44
2023-05-22T20:41:30.337Z,98225.16
2023-05-22T20:43:58.623Z,98226.28
2023-05-22T20:46:26.795Z,98215.56
2023-05-22T20:48:54.262Z,98220.22
2023-05-22T20:51:21.441Z,98221.66
2023-05-22T20:53:49.889Z,98217.44
2023-05-22T20:56:16.747Z,98220.19
2023-05-22T20:58:43.422Z,98225.91
2023-05-22T21:01:10.243Z,98221.47
2023-05-22T21:03:37.351Z,98228.75
2023-05-22T21:06:04.186Z,98232.47
2023-05-22T21:08:30.837Z,98234.66
2023-05-22T21:10:57.722Z,98236.41
2023-05-22T21:13:24.408Z,98233.00
2023-05-22T21:15:51.317Z,98234.41
2023-05-22T21:18:19.804Z,98234.72
2023-05-22T21:20:46.708Z,98232.53
2023-05-22T21:23:13.414Z,98240.50
2023-05-22T21:25:40.306Z,98235.31
2023-05-22T21:28:07.839Z,98237.09
2023-05-22T21:30:34.689Z,98228.97
2023-05-22T21:33:01.748Z,98237.25
2023-05-22T21:35:28.514Z,98240.41
2023-05-22T21:37:55.287Z,98234.16
2023-05-22T21:40:22.128Z,98236.19
2023-05-22T21:42:48.840Z,98233.34
2023-05-22T21:45:15.856Z,98239.00
2023-05-22T21:47:42.605Z,98236.47
2023-05-22T21:50:10.022Z,98235.63
2023-05-22T21:52:37.456Z,98228.00
2023-05-22T21:55:04.737Z,98225.94
2023-05-22T21:57:31.537Z,98221.28
2023-05-22T21:59:58.282Z,98223.44
2023-05-22T22:02:24.958Z,98218.88
2023-05-22T22:04:51.756Z,98232.34
2023-05-22T22:07:18.416Z,98226.75
2023-05-22T22:09:45.172Z,98229.09
2023-05-22T22:12:11.978Z,98238.53
2023-05-22T22:14:38.744Z,98247.16
2023-05-22T22:17:05.978Z,98254.69
2023-05-22T22:19:34.403Z,98252.06
2023-05-22T22:22:01.865Z,98244.50
2023-05-22T22:24:29.673Z,98256.94
2023-05-22T22:26:56.784Z,98257.00
2023-05-22T22:29:23.673Z,98259.34
2023-05-22T22:31:50.548Z,98254.00
2023-05-22T22:34:17.465Z,98253.47
2023-05-22T22:36:44.509Z,98253.47
2023-05-22T22:39:11.321Z,98254.19
2023-05-22T22:41:38.007Z,98251.69
2023-05-22T22:44:04.736Z,98256.13
2023-05-22T22:46:31.476Z,98260.06
2023-05-22T22:49:01.822Z,98262.88
2023-05-22T22:51:31.704Z,98262.00
2023-05-22T22:53:58.699Z,98269.50
2023-05-22T22:56:29.458Z,98264.88
2023-05-22T22:58:57.417Z,98259.94
2023-05-22T23:01:24.854Z,98259.06
2023-05-22T23:03:51.910Z,98261.81
2023-05-22T23:06:19.483Z,98250.88
2023-05-22T23:08:46.279Z,98264.03
2023-05-22T23:11:13.018Z,98268.25
2023-05-22T23:13:41.424Z,98265.66
2023-05-22T23:16:08.408Z,98272.50
2023-05-22T23:18:35.380Z,98267.88
2023-05-22T23:21:02.108Z,98274.97
2023-05-22T23:23:28.865Z,98275.25
2023-05-22T23:25:58.076Z,98277.13
2023-05-22T23:28:25.863Z,98277.13
2023-05-22T23:30:52.903Z,98276.34
2023-05-22T23:33:19.646Z,98286.22
2023-05-22T23:35:46.283Z,98283.75
2023-05-22T23:38:13.007Z,98281.28
2023-05-22T23:40:39.779Z,98284.16
2023-05-22T23:43:06.731Z,98275.78
2023-05-22T23:45:33.376Z,98277.41
2023-05-22T23:48:00.159Z,98276.91
2023-05-22T23:50:26.842Z,98274.47
2023-05-22T23:52:54.084Z,98266.53
2023-05-22T23:55:20.966Z,98271.16
2023-05-22T23:57:47.977Z,98274.19
